createdAt,value
2023-11-08T00:00:18.183Z,10.25
2023-11-08T00:02:44.927Z,10.39
2023-11-08T00:05:11.654Z,10.24
2023-11-08T00:07:41.312Z,10.22
2023-11-08T00:10:13.818Z,10.21
2023-11-08T00:12:40.991Z,10.24
2023-11-08T00:15:12.169Z,10.18
2023-11-08T00:17:39.341Z,10.04
2023-11-08T00:20:11.114Z,10.36
2023-11-08T00:22:40.700Z,10.31
2023-11-08T00:25:07.572Z,10.35
2023-11-08T00:27:34.399Z,10.18
2023-11-08T00:30:07.240Z,10.31
2023-11-08T00:32:34.056Z,10.18
2023-11-08T00:35:00.824Z,10.41
2023-11-08T00:37:27.706Z,10.29
2023-11-08T00:39:54.344Z,10.04
2023-11-08T00:42:22.753Z,10.05
2023-11-08T00:44:49.457Z,10.24
2023-11-08T00:47:19.502Z,10.15
2023-11-08T00:49:48.634Z,10.10
2023-11-08T00:52:15.915Z,10.13
2023-11-08T00:54:42.678Z,9.99
2023-11-08T00:57:09.624Z,10.06
2023-11-08T00:59:39.767Z,10.20
2023-11-08T01:02:09.840Z,10.28
2023-11-08T01:04:36.899Z,10.34
2023-11-08T01:07:08.959Z,10.30
2023-11-08T01:09:36.159Z,10.32
2023-11-08T01:12:04.591Z,10.20
2023-11-08T01:14:31.434Z,10.15
2023-11-08T01:16:58.103Z,10.19
2023-11-08T01:19:26.247Z,10.15
2023-11-08T01:21:53.465Z,10.41
2023-11-08T01:24:20.981Z,10.39
2023-11-08T01:26:51.663Z,10.36
2023-11-08T01:29:18.353Z,10.38
2023-11-08T01:31:45.715Z,10.34
2023-11-08T01:34:13.290Z,10.43
2023-11-08T01:36:40.093Z,10.37
2023-11-08T01:39:10.049Z,10.25
2023-11-08T01:41:50.075Z,10.50
2023-11-08T01:44:19.557Z,10.40
2023-11-08T01:46:54.706Z,10.38
2023-11-08T01:49:22.012Z,10.60
2023-11-08T01:51:51.894Z,10.46
2023-11-08T01:54:29.246Z,10.42
2023-11-08T01:56:56.305Z,10.52
2023-11-08T01:59:27.472Z,10.65
2023-11-08T02:01:58.669Z,10.67
2023-11-08T02:04:26.062Z,10.52
2023-11-08T02:06:54.485Z,10.69
2023-11-08T02:09:21.554Z,10.52
2023-11-08T02:11:54.690Z,10.54
2023-11-08T02:14:23.659Z,10.69
2023-11-08T02:16:50.267Z,10.58
2023-11-08T02:19:16.963Z,10.60
2023-11-08T02:21:44.207Z,10.65
2023-11-08T02:24:24.412Z,10.79
2023-11-08T02:26:53.179Z,10.78
2023-11-08T02:29:24.083Z,10.50
2023-11-08T02:31:53.776Z,10.57
2023-11-08T02:34:20.814Z,10.43
2023-11-08T02:36:50.708Z,10.56
2023-11-08T02:39:17.562Z,10.60
2023-11-08T02:41:44.271Z,10.56
2023-11-08T02:44:14.223Z,10.60
2023-11-08T02:46:45.965Z,10.57
2023-11-08T02:49:16.166Z,10.52
2023-11-08T02:51:44.600Z,10.67
2023-11-08T02:56:51.899Z,10.63
2023-11-08T02:59:18.548Z,10.55
2023-11-08T03:01:45.327Z,10.80
2023-11-08T03:04:12.334Z,10.77
2023-11-08T03:06:44.215Z,10.83
2023-11-08T03:09:12.240Z,11.02
2023-11-08T03:11:41.844Z,10.87
2023-11-08T03:14:08.635Z,10.95
2023-11-08T03:16:35.810Z,11.13
2023-11-08T03:19:02.955Z,11.10
2023-11-08T03:21:29.613Z,11.08
2023-11-08T03:23:56.355Z,11.03
2023-11-08T03:26:23.320Z,10.96
2023-11-08T03:28:50.233Z,11.13
2023-11-08T03:31:18.432Z,11.05
2023-11-08T03:33:45.272Z,10.79
2023-11-08T03:36:14.828Z,10.94
2023-11-08T03:38:45.238Z,10.98
2023-11-08T03:41:12.041Z,10.98
2023-11-08T03:43:39.180Z,11.02
2023-11-08T03:46:05.816Z,10.93
2023-11-08T03:48:32.631Z,11.08
2023-11-08T03:51:02.688Z,11.00
2023-11-08T03:53:29.940Z,10.95
2023-11-08T03:55:59.744Z,10.84
2023-11-08T03:58:26.384Z,10.88
2023-11-08T04:00:53.052Z,10.93
2023-11-08T04:03:23.049Z,10.95
2023-11-08T04:05:49.730Z,11.03
2023-11-08T04:08:18.864Z,11.02
2023-11-08T04:10:45.536Z,11.00
2023-11-08T04:13:14.400Z,11.05
2023-11-08T04:15:41.094Z,10.94
2023-11-08T04:18:08.221Z,10.89
2023-11-08T04:20:39.701Z,11.00
2023-11-08T04:23:09.718Z,10.77
2023-11-08T04:25:38.370Z,10.78
2023-11-08T04:28:05.135Z,10.64
2023-11-08T04:30:31.939Z,11.04
2023-11-08T04:33:01.107Z,11.25
2023-11-08T04:35:30.203Z,11.18
2023-11-08T04:37:58.539Z,10.88
2023-11-08T04:40:29.293Z,10.94
2023-11-08T04:42:58.598Z,10.88
2023-11-08T04:45:26.033Z,10.68
2023-11-08T04:47:52.753Z,10.68
2023-11-08T04:50:21.902Z,10.80
2023-11-08T04:52:50.709Z,10.72
2023-11-08T04:55:17.543Z,11.04
2023-11-08T04:57:50.031Z,10.81
2023-11-08T05:00:19.573Z,10.89
2023-11-08T05:02:49.221Z,10.86
2023-11-08T05:05:16.443Z,10.89
2023-11-08T05:07:48.448Z,10.86
2023-11-08T05:10:15.257Z,10.85
2023-11-08T05:12:51.290Z,10.79
2023-11-08T05:15:23.077Z,10.73
2023-11-08T05:17:49.895Z,10.81
2023-11-08T05:20:18.859Z,10.88
2023-11-08T05:22:48.245Z,10.73
2023-11-08T05:25:16.592Z,10.94
2023-11-08T05:27:46.062Z,10.77
2023-11-08T05:30:12.796Z,10.67
2023-11-08T05:35:24.712Z,10.61
2023-11-08T05:37:51.869Z,10.71
2023-11-08T05:40:19.597Z,10.98
2023-11-08T05:42:46.278Z,10.71
2023-11-08T05:45:13.002Z,10.73
2023-11-08T05:47:45.702Z,10.73
2023-11-08T05:50:16.932Z,10.77
2023-11-08T05:52:45.226Z,10.96
2023-11-08T05:55:14.153Z,11.07
2023-11-08T05:57:49.969Z,10.98
2023-11-08T06:00:19.905Z,10.87
2023-11-08T06:02:50.535Z,10.98
2023-11-08T06:05:17.455Z,11.03
2023-11-08T06:07:45.672Z,11.03
2023-11-08T06:10:12.620Z,11.10
2023-11-08T06:12:39.319Z,10.78
2023-11-08T06:15:11.951Z,10.77
2023-11-08T06:17:39.200Z,11.02
2023-11-08T06:20:10.018Z,11.02
2023-11-08T06:22:45.518Z,10.76
2023-11-08T06:25:12.220Z,10.99
2023-11-08T06:27:38.909Z,10.93
2023-11-08T06:30:05.977Z,11.10
2023-11-08T06:32:32.648Z,10.93
2023-11-08T06:35:04.124Z,11.12
2023-11-08T06:37:31.293Z,11.23
2023-11-08T06:39:58.455Z,10.97
2023-11-08T06:42:25.415Z,11.18
2023-11-08T06:44:56.158Z,11.11
2023-11-08T06:47:23.026Z,11.00
2023-11-08T06:49:52.744Z,11.03
2023-11-08T06:52:19.412Z,11.25
2023-11-08T06:54:46.279Z,11.22
2023-11-08T06:57:17.798Z,10.93
2023-11-08T06:59:49.921Z,11.24
2023-11-08T07:02:18.890Z,11.24
2023-11-08T07:04:45.984Z,11.02
2023-11-08T07:07:13.067Z,11.15
2023-11-08T07:09:39.877Z,11.27
2023-11-08T07:12:08.272Z,11.29
2023-11-08T07:14:38.284Z,11.27
2023-11-08T07:17:06.637Z,11.22
2023-11-08T07:19:34.174Z,11.21
2023-11-08T07:22:04.839Z,11.38
2023-11-08T07:24:54.948Z,11.21
2023-11-08T07:27:26.765Z,11.09
2023-11-08T07:29:54.792Z,11.33
2023-11-08T07:32:21.374Z,11.34
2023-11-08T07:34:49.333Z,11.55
2023-11-08T07:37:23.397Z,11.25
2023-11-08T07:39:50.111Z,11.40
2023-11-08T07:42:17.249Z,11.36
2023-11-08T07:44:47.985Z,11.22
2023-11-08T07:47:15.291Z,11.41
2023-11-08T07:49:42.071Z,11.24
2023-11-08T07:52:09.157Z,11.22
2023-11-08T07:57:16.694Z,11.41
2023-11-08T07:59:43.477Z,11.31
2023-11-08T08:02:15.519Z,11.61
2023-11-08T08:04:42.392Z,11.77
2023-11-08T08:07:15.308Z,11.52
2023-11-08T08:09:42.042Z,11.45
2023-11-08T08:12:08.679Z,11.51
2023-11-08T08:14:36.773Z,11.51
2023-11-08T08:17:06.361Z,11.62
2023-11-08T08:19:33.526Z,11.45
2023-11-08T08:22:02.510Z,11.66
2023-11-08T08:24:29.677Z,11.64
2023-11-08T08:27:00.598Z,11.41
2023-11-08T08:29:28.609Z,11.58
2023-11-08T08:31:55.259Z,11.46
2023-11-08T08:34:28.773Z,11.43
2023-11-08T08:36:58.614Z,11.60
2023-11-08T08:39:29.019Z,11.52
2023-11-08T08:41:56.596Z,11.69
2023-11-08T08:44:23.535Z,11.52
2023-11-08T08:46:51.095Z,11.83
2023-11-08T08:49:20.043Z,12.02
2023-11-08T08:51:51.641Z,11.96
2023-11-08T08:54:22.505Z,12.07
2023-11-08T08:56:52.585Z,11.89
2023-11-08T08:59:19.254Z,12.02
2023-11-08T09:01:45.824Z,11.75
2023-11-08T09:04:15.554Z,12.29
2023-11-08T09:06:45.081Z,11.99
2023-11-08T09:09:14.424Z,12.19
2023-11-08T09:11:42.163Z,12.13
2023-11-08T09:14:09.508Z,12.10
2023-11-08T09:16:47.038Z,12.26
2023-11-08T09:22:07.760Z,12.34
2023-11-08T09:24:34.439Z,12.37
2023-11-08T09:27:06.117Z,12.34
2023-11-08T09:29:33.961Z,12.27
2023-11-08T09:32:02.174Z,12.19
2023-11-08T09:34:29.347Z,12.08
2023-11-08T09:36:58.089Z,12.04
2023-11-08T09:39:25.893Z,12.09
2023-11-08T09:41:53.633Z,11.93
2023-11-08T09:44:22.110Z,12.04
2023-11-08T09:46:50.298Z,11.94
2023-11-08T09:49:17.195Z,12.30
2023-11-08T09:51:46.836Z,12.49
2023-11-08T09:54:14.021Z,12.11
2023-11-08T09:56:57.076Z,12.25
2023-11-08T09:59:27.332Z,12.47
2023-11-08T10:02:12.899Z,12.67
2023-11-08T10:04:59.282Z,12.59
2023-11-08T10:07:26.511Z,12.79
2023-11-08T10:09:54.380Z,12.60
2023-11-08T10:12:21.719Z,12.52
2023-11-08T10:14:58.467Z,12.60
2023-11-08T10:19:29.823Z,12.75
2023-11-08T10:20:28.252Z,12.52
2023-11-08T10:22:55.873Z,12.99
2023-11-08T10:25:27.053Z,12.87
2023-11-08T10:28:02.817Z,12.45
2023-11-08T10:30:33.021Z,12.56
2023-11-08T10:33:22.570Z,12.05
2023-11-08T10:35:50.972Z,12.16
2023-11-08T10:38:19.983Z,12.30
2023-11-08T10:40:50.426Z,12.31
2023-11-08T10:43:24.911Z,12.30
2023-11-08T10:45:51.624Z,12.13
2023-11-08T10:48:21.065Z,12.62
2023-11-08T10:50:52.366Z,13.45
2023-11-08T10:53:22.033Z,13.56
2023-11-08T10:55:49.651Z,13.32
2023-11-08T10:58:16.861Z,13.42
2023-11-08T11:00:45.466Z,13.27
2023-11-08T11:03:15.743Z,12.79
2023-11-08T11:05:47.068Z,12.98
2023-11-08T11:08:20.099Z,13.35
2023-11-08T11:10:53.348Z,12.75
2023-11-08T11:13:27.413Z,13.37
2023-11-08T11:16:07.959Z,13.74
2023-11-08T11:18:38.321Z,14.67
2023-11-08T11:21:21.270Z,14.60
2023-11-08T11:23:51.029Z,14.33
2023-11-08T11:26:40.178Z,13.88
2023-11-08T11:29:08.696Z,14.61
2023-11-08T11:31:39.935Z,14.21
2023-11-08T11:34:21.908Z,14.11
2023-11-08T11:37:07.875Z,13.65
2023-11-08T11:42:18.172Z,13.05
2023-11-08T11:45:04.045Z,12.93
2023-11-08T11:47:32.011Z,12.83
2023-11-08T11:50:11.773Z,13.06
2023-11-08T11:52:38.914Z,12.94
2023-11-08T11:55:12.243Z,13.07
2023-11-08T11:57:41.472Z,12.99
2023-11-08T12:00:12.267Z,13.28
2023-11-08T12:02:49.438Z,13.28
2023-11-08T12:05:16.307Z,13.17
2023-11-08T12:07:49.054Z,12.96
2023-11-08T12:10:22.499Z,12.98
2023-11-08T12:12:51.228Z,13.28
2023-11-08T12:15:23.815Z,13.38
2023-11-08T12:17:52.904Z,13.30
2023-11-08T12:20:26.171Z,13.29
2023-11-08T12:22:55.827Z,12.99
2023-11-08T12:25:25.366Z,13.08
2023-11-08T12:27:58.610Z,13.44
2023-11-08T12:30:27.819Z,13.81
2023-11-08T12:33:00.002Z,14.46
2023-11-08T12:35:27.305Z,13.79
2023-11-08T12:37:59.067Z,13.62
2023-11-08T12:40:27.891Z,13.53
2023-11-08T12:43:55.958Z,13.59
2023-11-08T12:46:35.603Z,13.75
2023-11-08T12:49:00.155Z,13.61
2023-11-08T12:51:33.848Z,13.62
2023-11-08T12:54:03.264Z,13.61
2023-11-08T12:56:40.443Z,13.53
2023-11-08T12:59:17.502Z,13.24
2023-11-08T13:01:50.695Z,13.13
2023-11-08T13:04:20.093Z,13.19
2023-11-08T13:06:49.150Z,13.31
2023-11-08T13:09:19.266Z,13.25
2023-11-08T13:11:46.298Z,13.28
2023-11-08T13:14:13.650Z,13.37
2023-11-08T13:16:43.556Z,13.37
2023-11-08T13:19:12.546Z,13.57
2023-11-08T13:21:41.800Z,13.58
2023-11-08T13:24:10.912Z,13.57
2023-11-08T13:26:42.735Z,13.51
2023-11-08T13:29:16.593Z,13.44
2023-11-08T13:31:43.422Z,13.93
2023-11-08T13:34:10.233Z,13.94
2023-11-08T13:36:39.076Z,13.84
2023-11-08T13:39:10.614Z,13.40
2023-11-08T13:41:37.290Z,13.53
2023-11-08T13:44:04.072Z,13.79
2023-11-08T13:46:34.033Z,13.86
2023-11-08T13:49:02.057Z,13.96
2023-11-08T13:51:31.854Z,14.26
2023-11-08T13:53:58.588Z,14.62
2023-11-08T13:56:25.450Z,14.61
2023-11-08T13:58:52.214Z,14.26
2023-11-08T14:01:30.682Z,13.76
2023-11-08T14:03:59.424Z,13.83
2023-11-08T14:06:32.652Z,14.21
2023-11-08T14:09:04.544Z,14.28
2023-11-08T14:11:43.503Z,14.30
2023-11-08T14:14:10.180Z,14.36
2023-11-08T14:16:37.961Z,14.39
2023-11-08T14:19:06.310Z,14.16
2023-11-08T14:21:37.354Z,13.94
2023-11-08T14:24:04.214Z,13.87
2023-11-08T14:26:35.506Z,14.12
2023-11-08T14:29:03.373Z,13.72
2023-11-08T14:31:30.543Z,13.32
2023-11-08T14:34:01.669Z,13.37
2023-11-08T14:36:55.380Z,13.22
2023-11-08T14:39:27.237Z,13.40
2023-11-08T14:42:29.862Z,13.30
2023-11-08T14:44:41.860Z,13.37
2023-11-08T14:47:08.526Z,13.42
2023-11-08T14:49:35.813Z,13.18
2023-11-08T14:52:03.514Z,13.18
2023-11-08T14:54:30.262Z,13.33
2023-11-08T14:56:58.937Z,13.45
2023-11-08T14:59:27.522Z,13.11
2023-11-08T15:01:58.982Z,13.21
2023-11-08T15:04:26.711Z,13.09
2023-11-08T15:06:53.437Z,13.13
2023-11-08T15:09:53.047Z,13.05
2023-11-08T15:12:11.995Z,13.09
2023-11-08T15:14:38.932Z,12.95
2023-11-08T15:17:05.714Z,13.06
2023-11-08T15:19:34.816Z,13.07
2023-11-08T15:22:03.999Z,12.78
2023-11-08T15:24:33.614Z,12.67
2023-11-08T15:27:01.344Z,13.03
2023-11-08T15:29:31.317Z,12.85
2023-11-08T15:32:01.783Z,12.97
2023-11-08T15:34:29.460Z,12.67
2023-11-08T15:36:58.967Z,12.78
2023-11-08T15:39:26.488Z,12.91
2023-11-08T15:41:55.718Z,12.62
2023-11-08T15:44:25.525Z,12.61
2023-11-08T15:46:53.102Z,12.45
2023-11-08T15:49:22.638Z,12.63
2023-11-08T15:51:52.728Z,12.55
2023-11-08T15:54:19.585Z,12.57
2023-11-08T15:56:49.321Z,12.61
2023-11-08T15:59:17.190Z,12.69
2023-11-08T16:01:47.081Z,12.58
2023-11-08T16:04:17.056Z,12.44
2023-11-08T16:06:44.031Z,12.47
2023-11-08T16:09:12.409Z,12.40
2023-11-08T16:11:40.686Z,12.36
2023-11-08T16:14:08.093Z,12.26
2023-11-08T16:16:42.845Z,12.17
2023-11-08T16:19:13.531Z,12.41
2023-11-08T16:21:40.428Z,12.33
2023-11-08T16:24:30.216Z,12.23
2023-11-08T16:26:56.865Z,12.28
2023-11-08T16:29:50.848Z,12.10
2023-11-08T16:32:34.975Z,12.09
2023-11-08T16:35:01.690Z,12.18
2023-11-08T16:37:28.498Z,12.28
2023-11-08T16:39:55.232Z,12.18
2023-11-08T16:42:23.368Z,12.35
2023-11-08T16:44:50.620Z,12.14
2023-11-08T16:47:17.579Z,12.21
2023-11-08T16:49:47.662Z,12.06
2023-11-08T16:52:15.538Z,11.98
2023-11-08T16:54:46.088Z,12.29
2023-11-08T16:57:12.784Z,12.06
2023-11-08T16:59:40.658Z,12.12
2023-11-08T17:02:07.721Z,12.01
2023-11-08T17:04:41.556Z,12.44
2023-11-08T17:07:08.592Z,12.29
2023-11-08T17:09:36.683Z,12.05
2023-11-08T17:12:06.263Z,12.27
2023-11-08T17:14:38.159Z,12.09
2023-11-08T17:17:13.598Z,12.27
2023-11-08T17:19:48.718Z,11.89
2023-11-08T17:22:18.313Z,12.13
2023-11-08T17:24:50.686Z,12.18
2023-11-08T17:27:18.587Z,12.21
2023-11-08T17:29:48.773Z,12.04
2023-11-08T17:32:18.552Z,12.16
2023-11-08T17:34:48.712Z,12.10
2023-11-08T17:37:17.685Z,11.86
2023-11-08T17:39:44.418Z,11.91
2023-11-08T17:42:11.351Z,11.95
2023-11-08T17:44:38.078Z,11.95
2023-11-08T17:47:06.479Z,11.68
2023-11-08T17:49:33.191Z,12.01
2023-11-08T17:52:05.547Z,11.58
2023-11-08T17:54:33.903Z,11.66
2023-11-08T17:57:01.899Z,11.74
2023-11-08T17:59:32.341Z,11.93
2023-11-08T18:01:59.486Z,11.67
2023-11-08T18:04:33.657Z,11.74
2023-11-08T18:07:06.230Z,11.51
2023-11-08T18:09:35.978Z,11.53
2023-11-08T18:12:03.952Z,11.45
2023-11-08T18:14:33.314Z,11.58
2023-11-08T18:17:00.016Z,11.62
2023-11-08T18:19:28.991Z,11.63
2023-11-08T18:21:55.758Z,11.66
2023-11-08T18:24:30.118Z,11.79
2023-11-08T18:26:59.057Z,11.68
2023-11-08T18:29:33.165Z,11.78
2023-11-08T18:32:05.857Z,11.46
2023-11-08T18:34:33.337Z,11.64
2023-11-08T18:37:10.540Z,11.65
2023-11-08T18:39:39.499Z,11.67
2023-11-08T18:42:06.272Z,11.65
2023-11-08T18:44:36.666Z,11.69
2023-11-08T18:47:04.720Z,11.69
2023-11-08T18:49:37.572Z,11.56
2023-11-08T18:52:18.744Z,11.35
2023-11-08T18:54:47.202Z,11.44
2023-11-08T18:57:13.898Z,11.97
2023-11-08T18:59:41.786Z,11.75
2023-11-08T19:02:11.944Z,11.91
2023-11-08T19:04:38.778Z,11.56
2023-11-08T19:07:08.394Z,11.56
2023-11-08T19:09:38.221Z,11.56
2023-11-08T19:12:05.367Z,11.47
2023-11-08T19:14:35.664Z,11.20
2023-11-08T19:17:05.713Z,11.25
2023-11-08T19:19:33.216Z,11.44
2023-11-08T19:22:01.868Z,11.12
2023-11-08T19:24:28.794Z,11.43
2023-11-08T19:26:55.564Z,11.07
2023-11-08T19:29:22.268Z,11.13
2023-11-08T19:31:50.932Z,11.44
2023-11-08T19:34:19.083Z,11.48
2023-11-08T19:36:53.692Z,11.35
2023-11-08T19:39:22.710Z,11.44
2023-11-08T19:41:50.508Z,11.29
2023-11-08T19:44:19.973Z,11.19
2023-11-08T19:46:47.135Z,11.29
2023-11-08T19:49:14.035Z,11.26
2023-11-08T19:51:41.131Z,11.10
2023-11-08T19:54:08.016Z,11.33
2023-11-08T19:56:35.913Z,11.28
2023-11-08T19:59:04.565Z,11.18
2023-11-08T20:01:31.323Z,11.37
2023-11-08T20:03:58.074Z,11.53
2023-11-08T20:06:32.143Z,11.38
2023-11-08T20:08:58.895Z,11.32
2023-11-08T20:11:30.247Z,11.46
2023-11-08T20:14:00.455Z,11.45
2023-11-08T20:16:28.258Z,11.08
2023-11-08T20:18:55.127Z,11.37
2023-11-08T20:21:25.379Z,11.33
2023-11-08T20:23:53.639Z,11.51
2023-11-08T20:26:21.575Z,11.29
2023-11-08T20:28:53.954Z,11.51
2023-11-08T20:31:20.816Z,11.43
2023-11-08T20:33:47.514Z,11.57
2023-11-08T20:36:20.201Z,11.56
2023-11-08T20:38:47.225Z,11.63
2023-11-08T20:41:15.189Z,11.63
2023-11-08T20:43:42.337Z,11.27
2023-11-08T20:46:13.984Z,11.52
2023-11-08T20:48:49.747Z,11.48
2023-11-08T20:51:19.017Z,11.38
2023-11-08T20:53:45.754Z,11.18
2023-11-08T20:56:13.085Z,11.29
2023-11-08T20:58:43.028Z,11.18
2023-11-08T21:01:09.866Z,11.27
2023-11-08T21:03:36.600Z,11.20
2023-11-08T21:06:03.521Z,11.16
2023-11-08T21:08:30.593Z,11.14
2023-11-08T21:10:57.377Z,11.22
2023-11-08T21:13:27.206Z,11.05
2023-11-08T21:15:54.660Z,11.19
2023-11-08T21:18:23.586Z,11.26
2023-11-08T21:20:53.142Z,11.22
2023-11-08T21:23:19.913Z,11.18
2023-11-08T21:25:50.340Z,11.26
2023-11-08T21:28:24.142Z,11.17
2023-11-08T21:30:52.074Z,11.16
2023-11-08T21:33:20.760Z,11.09
2023-11-08T21:35:48.155Z,11.14
2023-11-08T21:38:16.934Z,11.48
2023-11-08T21:40:51.315Z,11.39
2023-11-08T21:43:19.290Z,11.31
2023-11-08T21:45:51.474Z,11.43
2023-11-08T21:48:23.427Z,11.36
2023-11-08T21:50:57.737Z,11.33
2023-11-08T21:53:25.602Z,11.35
2023-11-08T21:55:53.663Z,11.20
2023-11-08T21:58:23.668Z,11.33
2023-11-08T22:00:53.809Z,11.39
2023-11-08T22:03:21.422Z,11.52
2023-11-08T22:05:51.603Z,11.50
2023-11-08T22:08:19.040Z,11.65
2023-11-08T22:10:48.977Z,11.47
2023-11-08T22:13:16.055Z,11.72
2023-11-08T22:15:42.887Z,11.89
2023-11-08T22:18:09.726Z,11.68
2023-11-08T22:20:36.772Z,11.57
2023-11-08T22:23:04.723Z,11.62
2023-11-08T22:25:31.784Z,11.66
2023-11-08T22:28:00.454Z,11.50
2023-11-08T22:30:27.394Z,11.67
2023-11-08T22:32:54.251Z,11.94
2023-11-08T22:35:25.740Z,11.57
2023-11-08T22:37:55.130Z,11.61
2023-11-08T22:40:21.990Z,11.33
2023-11-08T22:42:48.708Z,11.53
2023-11-08T22:45:36.212Z,11.56
2023-11-08T22:48:08.548Z,11.37
2023-11-08T22:50:35.386Z,11.29
2023-11-08T22:53:06.144Z,11.31
2023-11-08T22:55:33.986Z,11.05
2023-11-08T22:58:01.808Z,11.25
2023-11-08T23:00:34.375Z,11.14
2023-11-08T23:03:03.521Z,10.95
2023-11-08T23:05:35.854Z,10.84
2023-11-08T23:08:05.906Z,11.00
2023-11-08T23:10:32.689Z,10.89
2023-11-08T23:13:07.275Z,10.78
2023-11-08T23:15:41.258Z,10.80
2023-11-08T23:18:08.979Z,10.83
2023-11-08T23:20:40.835Z,10.95
2023-11-08T23:23:09.992Z,10.97
2023-11-08T23:25:38.088Z,10.83
2023-11-08T23:28:04.756Z,10.91
2023-11-08T23:30:51.766Z,10.72
2023-11-08T23:33:21.107Z,10.79
2023-11-08T23:35:47.744Z,10.71
2023-11-08T23:38:15.586Z,10.86
2023-11-08T23:40:43.397Z,10.75
2023-11-08T23:43:10.503Z,10.73
2023-11-08T23:45:37.229Z,10.87
2023-11-08T23:48:10.079Z,10.88
2023-11-08T23:50:38.312Z,10.98
2023-11-08T23:53:05.285Z,10.92
2023-11-08T23:55:34.367Z,10.61
2023-11-08T23:58:01.112Z,10.79
